createdAt,value
2022-08-30T00:01:03.019Z,6.88
2022-08-30T00:05:20.364Z,7.88
2022-08-30T00:09:37.547Z,6.72
2022-08-30T00:13:56.360Z,7.05
2022-08-30T00:18:13.783Z,6.85
2022-08-30T00:22:32.972Z,6.40
2022-08-30T00:26:50.621Z,6.22
2022-08-30T00:31:08.621Z,7.28
2022-08-30T00:35:26.163Z,7.33
2022-08-30T00:39:43.327Z,6.55
2022-08-30T00:44:00.770Z,6.50
2022-08-30T00:48:18.750Z,6.43
2022-08-30T00:52:38.005Z,6.03
2022-08-30T00:56:55.538Z,7.22
2022-08-30T01:01:13.318Z,6.47
2022-08-30T01:05:30.989Z,6.93
2022-08-30T01:09:48.238Z,6.93
2022-08-30T01:14:07.898Z,6.57
2022-08-30T01:18:25.969Z,6.47
2022-08-30T01:22:48.924Z,6.63
2022-08-30T01:27:06.180Z,7.03
2022-08-30T01:31:23.703Z,7.35
2022-08-30T01:35:59.363Z,7.57
2022-08-30T01:40:17.502Z,6.97
2022-08-30T01:44:34.739Z,7.37
2022-08-30T01:48:54.458Z,7.88
2022-08-30T01:53:13.170Z,7.70
2022-08-30T02:01:48.348Z,6.82
2022-08-30T02:06:09.007Z,7.47
2022-08-30T02:10:26.563Z,6.47
2022-08-30T02:14:44.036Z,7.15
2022-08-30T02:19:02.229Z,8.15
2022-08-30T02:23:19.661Z,7.73
2022-08-30T02:27:36.897Z,8.63
2022-08-30T02:31:54.150Z,8.15
2022-08-30T02:36:11.739Z,7.78
2022-08-30T02:40:28.991Z,7.43
2022-08-30T02:44:46.231Z,7.60
2022-08-30T02:49:23.745Z,8.30
2022-08-30T02:53:43.881Z,8.60
2022-08-30T02:58:01.159Z,9.20
2022-08-30T03:02:18.473Z,9.00
2022-08-30T03:06:36.025Z,8.73
2022-08-30T03:10:53.231Z,9.35
2022-08-30T03:15:13.225Z,9.25
2022-08-30T03:19:30.453Z,9.27
2022-08-30T03:23:48.071Z,8.93
2022-08-30T03:28:06.268Z,8.43
2022-08-30T03:32:24.131Z,8.97
2022-08-30T03:36:41.372Z,11.50
2022-08-30T03:40:58.536Z,9.40
2022-08-30T03:45:18.018Z,9.77
2022-08-30T03:49:35.430Z,9.27
2022-08-30T03:53:52.691Z,9.80
2022-08-30T03:58:10.181Z,9.82
2022-08-30T04:02:27.679Z,10.90
2022-08-30T04:06:44.914Z,9.18
2022-08-30T04:11:05.336Z,10.65
2022-08-30T04:15:22.682Z,10.85
2022-08-30T04:19:39.859Z,10.02
2022-08-30T04:23:57.140Z,9.43
2022-08-30T04:28:14.591Z,9.35
2022-08-30T04:32:34.055Z,10.35
2022-08-30T04:36:51.464Z,9.88
2022-08-30T04:41:12.009Z,11.40
2022-08-30T04:45:29.435Z,10.27
2022-08-30T04:49:46.721Z,10.45
2022-08-30T04:54:04.267Z,10.90
2022-08-30T04:58:21.509Z,11.57
2022-08-30T05:02:40.556Z,10.52
2022-08-30T05:06:57.797Z,10.40
2022-08-30T05:11:16.552Z,10.27
2022-08-30T05:15:34.120Z,10.38
2022-08-30T05:19:51.401Z,10.50
2022-08-30T05:24:08.701Z,9.10
2022-08-30T05:28:26.408Z,9.45
2022-08-30T05:32:44.183Z,9.40
2022-08-30T05:37:02.773Z,8.02
2022-08-30T05:41:21.907Z,8.90
2022-08-30T05:45:39.037Z,8.80
2022-08-30T05:49:56.294Z,8.65
2022-08-30T05:54:15.898Z,9.07
2022-08-30T05:58:33.571Z,9.57
2022-08-30T06:02:54.298Z,7.93
2022-08-30T06:07:13.025Z,7.88
2022-08-30T06:11:33.626Z,7.68
2022-08-30T06:15:52.603Z,8.47
2022-08-30T06:20:10.679Z,7.45
2022-08-30T06:24:53.652Z,7.97
2022-08-30T06:29:05.349Z,7.18
2022-08-30T06:33:23.305Z,6.57
2022-08-30T06:37:42.728Z,7.63
2022-08-30T06:41:59.892Z,6.97
2022-08-30T06:46:21.353Z,7.00
2022-08-30T06:50:38.783Z,6.85
2022-08-30T06:54:58.295Z,6.72
2022-08-30T06:59:15.559Z,6.45
2022-08-30T07:03:32.736Z,6.53
2022-08-30T07:07:53.214Z,6.78
2022-08-30T07:12:12.240Z,6.30
2022-08-30T07:20:47.191Z,6.35
2022-08-30T07:25:04.800Z,6.32
2022-08-30T07:29:22.005Z,6.60
2022-08-30T07:33:40.458Z,6.10
2022-08-30T07:37:58.521Z,6.10
2022-08-30T07:42:16.745Z,5.53
2022-08-30T07:46:34.314Z,5.53
2022-08-30T07:50:56.298Z,6.18
2022-08-30T07:55:14.856Z,5.45
2022-08-30T07:59:35.574Z,5.90
2022-08-30T08:03:53.837Z,6.47
2022-08-30T08:08:12.006Z,5.93
2022-08-30T08:12:29.296Z,5.77
2022-08-30T08:16:46.696Z,5.43
2022-08-30T08:21:05.297Z,5.43
2022-08-30T08:25:23.223Z,6.00
2022-08-30T08:29:40.406Z,7.05
2022-08-30T08:38:18.280Z,5.93
2022-08-30T08:42:57.639Z,5.93
2022-08-30T08:47:20.593Z,5.50
2022-08-30T08:51:58.639Z,4.88
2022-08-30T08:56:18.631Z,4.40
2022-08-30T09:00:35.833Z,3.97
2022-08-30T09:04:59.806Z,4.55
2022-08-30T09:09:27.766Z,3.90
2022-08-30T09:13:44.991Z,4.50
2022-08-30T09:18:16.919Z,3.85
2022-08-30T09:22:42.586Z,4.43
2022-08-30T09:27:24.168Z,4.25
2022-08-30T09:32:01.341Z,3.05
2022-08-30T09:36:33.433Z,4.18
2022-08-30T09:40:59.539Z,3.22
2022-08-30T09:45:28.965Z,2.97
2022-08-30T09:49:46.244Z,2.90
2022-08-30T09:54:24.047Z,3.08
2022-08-30T09:59:02.992Z,2.70
2022-08-30T10:03:48.650Z,2.97
2022-08-30T10:08:13.961Z,2.83
2022-08-30T10:12:48.222Z,8.32
2022-08-30T10:17:44.667Z,3.58
2022-08-30T10:22:11.163Z,3.45
2022-08-30T10:26:31.801Z,2.40
2022-08-30T10:30:57.326Z,3.25
2022-08-30T10:35:24.837Z,2.88
2022-08-30T10:39:47.675Z,2.38
2022-08-30T10:44:27.557Z,2.40
2022-08-30T10:48:47.773Z,2.20
2022-08-30T10:53:25.603Z,2.40
2022-08-30T10:57:43.634Z,1.90
2022-08-30T11:02:35.381Z,2.03
2022-08-30T11:07:14.591Z,2.40
2022-08-30T11:11:49.540Z,2.40
2022-08-30T11:16:15.538Z,2.20
2022-08-30T11:20:35.626Z,3.10
2022-08-30T11:25:12.836Z,2.50
2022-08-30T11:29:40.280Z,2.50
2022-08-30T11:34:00.926Z,2.55
2022-08-30T11:38:26.475Z,2.70
2022-08-30T11:42:49.518Z,2.60
2022-08-30T11:47:45.024Z,2.45
2022-08-30T11:52:30.714Z,2.58
2022-08-30T11:57:02.300Z,2.88
2022-08-30T12:01:42.019Z,2.40
2022-08-30T12:06:06.012Z,2.65
2022-08-30T12:10:41.226Z,2.50
2022-08-30T12:15:00.250Z,2.28
2022-08-30T12:19:20.656Z,2.70
2022-08-30T12:24:03.842Z,2.60
2022-08-30T12:28:25.166Z,2.50
2022-08-30T12:32:45.720Z,2.85
2022-08-30T12:37:08.578Z,2.80
2022-08-30T12:41:25.975Z,3.13
2022-08-30T12:45:45.913Z,2.88
2022-08-30T12:50:12.061Z,2.75
2022-08-30T12:54:32.372Z,2.70
2022-08-30T12:58:52.783Z,2.53
2022-08-30T13:03:30.022Z,2.88
2022-08-30T13:07:48.004Z,2.53
2022-08-30T13:12:27.719Z,2.85
2022-08-30T13:21:27.430Z,3.20
2022-08-30T13:25:44.933Z,3.05
2022-08-30T13:30:13.702Z,2.90
2022-08-30T13:34:33.022Z,2.67
2022-08-30T13:38:50.779Z,2.60
2022-08-30T13:43:07.998Z,2.45
2022-08-30T13:47:34.858Z,2.65
2022-08-30T13:52:18.376Z,2.60
2022-08-30T13:56:32.250Z,2.50
2022-08-30T14:00:49.581Z,2.58
2022-08-30T14:05:20.526Z,2.65
2022-08-30T14:09:48.365Z,2.50
2022-08-30T14:14:36.492Z,2.63
2022-08-30T14:18:43.655Z,2.45
2022-08-30T14:23:02.249Z,2.80
2022-08-30T14:27:24.891Z,2.85
2022-08-30T14:31:44.710Z,3.20
2022-08-30T14:36:08.638Z,2.90
2022-08-30T14:40:30.003Z,2.70
2022-08-30T14:44:56.114Z,2.80
2022-08-30T14:49:14.299Z,3.22
2022-08-30T14:53:31.515Z,2.80
2022-08-30T14:57:51.244Z,2.65
2022-08-30T15:02:08.535Z,2.83
2022-08-30T15:06:26.951Z,2.50
2022-08-30T15:10:44.419Z,2.90
2022-08-30T15:15:02.824Z,3.13
2022-08-30T15:19:20.557Z,2.92
2022-08-30T15:23:39.297Z,2.88
2022-08-30T15:27:56.584Z,3.22
2022-08-30T15:32:13.816Z,3.10
2022-08-30T15:36:31.115Z,2.63
2022-08-30T15:40:50.062Z,3.00
2022-08-30T15:45:08.228Z,3.50
2022-08-30T15:49:25.960Z,3.83
2022-08-30T15:53:44.644Z,3.50
2022-08-30T15:58:02.705Z,3.30
2022-08-30T16:02:20.271Z,3.23
2022-08-30T16:06:44.712Z,3.22
2022-08-30T16:11:06.047Z,3.10
2022-08-30T16:15:23.867Z,3.58
2022-08-30T16:19:41.097Z,3.30
2022-08-30T16:24:01.039Z,3.30
2022-08-30T16:28:18.203Z,3.30
2022-08-30T16:32:35.444Z,3.80
2022-08-30T16:36:52.648Z,3.45
2022-08-30T16:41:15.622Z,3.60
2022-08-30T16:45:38.728Z,3.78
2022-08-30T16:50:00.561Z,3.90
2022-08-30T16:54:18.003Z,3.83
2022-08-30T16:58:35.698Z,4.00
2022-08-30T17:02:54.552Z,3.80
2022-08-30T17:11:32.850Z,4.38
2022-08-30T17:15:50.130Z,4.43
2022-08-30T17:20:09.239Z,4.60
2022-08-30T17:24:27.428Z,4.80
2022-08-30T17:28:45.718Z,4.18
2022-08-30T17:33:03.275Z,4.38
2022-08-30T17:37:20.954Z,4.75
2022-08-30T17:41:45.415Z,4.38
2022-08-30T17:50:28.002Z,4.47
2022-08-30T17:54:45.387Z,4.00
2022-08-30T17:59:05.390Z,4.10
2022-08-30T18:03:22.634Z,4.00
2022-08-30T18:07:40.732Z,4.37
2022-08-30T18:11:58.030Z,3.85
2022-08-30T18:16:16.212Z,3.93
2022-08-30T18:20:39.440Z,3.88
2022-08-30T18:25:01.674Z,4.50
2022-08-30T18:29:29.305Z,4.13
2022-08-30T18:33:48.360Z,4.03
2022-08-30T18:38:05.763Z,4.13
2022-08-30T18:42:23.042Z,4.20
2022-08-30T18:46:51.233Z,5.35
2022-08-30T18:51:20.779Z,5.45
2022-08-30T18:55:39.201Z,5.82
2022-08-30T18:59:56.409Z,5.30
2022-08-30T19:04:22.337Z,7.13
2022-08-30T19:08:48.747Z,8.07
2022-08-30T19:13:06.439Z,9.13
2022-08-30T19:17:23.990Z,6.05
2022-08-30T19:21:41.250Z,6.45
2022-08-30T19:25:58.444Z,7.70
2022-08-30T19:30:21.671Z,11.60
2022-08-30T19:34:42.443Z,9.02
2022-08-30T19:38:59.623Z,5.90
2022-08-30T19:43:17.076Z,5.75
2022-08-30T19:47:36.652Z,6.60
2022-08-30T19:51:54.101Z,7.00
2022-08-30T19:56:11.376Z,6.35
2022-08-30T20:00:30.668Z,6.85
2022-08-30T20:04:48.723Z,6.30
2022-08-30T20:09:06.324Z,9.50
2022-08-30T20:13:27.847Z,8.35
2022-08-30T20:18:03.352Z,8.82
2022-08-30T20:22:23.133Z,6.25
2022-08-30T20:26:43.964Z,6.38
2022-08-30T20:31:04.800Z,6.43
2022-08-30T20:35:23.693Z,6.53
2022-08-30T20:39:41.287Z,6.55
2022-08-30T20:43:59.702Z,6.38
2022-08-30T20:48:19.391Z,6.57
2022-08-30T20:56:53.803Z,6.80
2022-08-30T21:01:12.309Z,7.63
2022-08-30T21:05:29.683Z,6.75
2022-08-30T21:09:46.927Z,6.82
2022-08-30T21:14:04.919Z,7.57
2022-08-30T21:18:22.328Z,7.05
2022-08-30T21:22:39.589Z,7.72
2022-08-30T21:26:57.453Z,7.13
2022-08-30T21:31:18.219Z,7.25
2022-08-30T21:35:55.694Z,7.40
2022-08-30T21:40:14.936Z,7.30
2022-08-30T21:44:32.308Z,7.40
2022-08-30T21:48:51.001Z,7.60
2022-08-30T21:53:08.373Z,7.40
2022-08-30T21:57:26.419Z,7.72
2022-08-30T22:01:43.746Z,8.13
2022-08-30T22:06:00.969Z,7.43
2022-08-30T22:10:20.575Z,8.15
2022-08-30T22:14:38.221Z,8.05
2022-08-30T22:18:55.959Z,8.27
2022-08-30T22:23:15.851Z,8.00
2022-08-30T22:27:36.304Z,7.38
2022-08-30T22:31:54.257Z,7.75
2022-08-30T22:36:24.296Z,8.05
2022-08-30T22:40:53.757Z,8.55
2022-08-30T22:45:11.355Z,8.27
2022-08-30T22:49:28.579Z,8.65
2022-08-30T22:53:45.760Z,8.82
2022-08-30T22:58:02.939Z,8.27
2022-08-30T23:02:20.195Z,8.32
2022-08-30T23:06:37.455Z,9.73
2022-08-30T23:10:57.908Z,9.60
2022-08-30T23:15:16.121Z,9.82
2022-08-30T23:19:33.731Z,10.77
2022-08-30T23:24:11.286Z,9.73
2022-08-30T23:28:47.276Z,9.95
2022-08-30T23:33:23.158Z,9.30
2022-08-30T23:37:58.946Z,8.65
2022-08-30T23:42:35.063Z,8.93
2022-08-30T23:47:10.939Z,8.65
2022-08-30T23:51:46.928Z,9.15
2022-08-30T23:56:22.984Z,9.13
